createdAt,value
2017-08-06T00:01:05.839Z,99350.26
2017-08-06T00:03:31.729Z,99351.50
2017-08-06T00:05:57.925Z,99347.77
2017-08-06T00:08:23.786Z,99352.45
2017-08-06T00:10:49.664Z,99347.95
2017-08-06T00:13:15.545Z,99350.23
2017-08-06T00:15:41.406Z,99358.12
2017-08-06T00:18:07.346Z,99359.86
2017-08-06T00:20:33.267Z,99364.80
2017-08-06T00:22:59.191Z,99360.52
2017-08-06T00:25:25.079Z,99361.85
2017-08-06T00:27:50.964Z,99371.75
2017-08-06T00:30:16.772Z,99370.81
2017-08-06T00:32:42.635Z,99371.56
2017-08-06T00:35:08.482Z,99370.16
2017-08-06T00:37:34.353Z,99373.23
2017-08-06T00:40:00.259Z,99359.68
2017-08-06T00:42:26.221Z,99367.48
2017-08-06T00:44:52.116Z,99374.42
2017-08-06T00:47:18.012Z,99368.59
2017-08-06T00:49:43.908Z,99372.03
2017-08-06T00:52:09.760Z,99368.11
2017-08-06T00:54:35.650Z,99372.03
2017-08-06T00:57:01.508Z,99373.39
2017-08-06T00:59:27.387Z,99373.39
2017-08-06T01:01:53.253Z,99372.24
2017-08-06T01:04:19.185Z,99376.61
2017-08-06T01:06:45.191Z,99376.94
2017-08-06T01:09:11.033Z,99386.20
2017-08-06T01:11:36.922Z,99387.59
2017-08-06T01:14:02.782Z,99383.09
2017-08-06T01:16:28.659Z,99391.69
2017-08-06T01:18:54.542Z,99402.47
2017-08-06T01:21:20.427Z,99397.73
2017-08-06T01:23:46.308Z,99400.86
2017-08-06T01:26:12.169Z,99400.41
2017-08-06T01:28:38.073Z,99398.27
2017-08-06T01:31:03.916Z,99398.25
2017-08-06T01:33:29.799Z,99392.58
2017-08-06T01:35:56.645Z,99399.69
2017-08-06T01:38:22.528Z,99399.39
2017-08-06T01:40:48.417Z,99400.98
2017-08-06T01:43:14.275Z,99397.53
2017-08-06T01:45:40.151Z,99400.69
2017-08-06T01:48:06.036Z,99398.98
2017-08-06T01:50:31.931Z,99397.13
2017-08-06T01:52:57.818Z,99404.28
2017-08-06T01:55:23.748Z,99409.33
2017-08-06T01:57:49.610Z,99411.49
2017-08-06T02:00:15.558Z,99410.31
2017-08-06T02:02:41.422Z,99409.66
2017-08-06T02:05:07.318Z,99406.30
2017-08-06T02:07:33.202Z,99411.92
2017-08-06T02:09:59.055Z,99410.76
2017-08-06T02:12:25.171Z,99412.63
2017-08-06T02:14:51.034Z,99415.27
2017-08-06T02:17:16.938Z,99411.73
2017-08-06T02:19:42.795Z,99415.02
2017-08-06T02:22:08.659Z,99415.91
2017-08-06T02:24:34.553Z,99414.95
2017-08-06T02:27:00.412Z,99411.66
2017-08-06T02:29:26.265Z,99416.67
2017-08-06T02:31:52.110Z,99418.83
2017-08-06T02:34:17.987Z,99414.89
2017-08-06T02:36:43.813Z,99421.57
2017-08-06T02:39:09.690Z,99426.50
2017-08-06T02:41:35.542Z,99425.07
2017-08-06T02:44:01.466Z,99423.80
2017-08-06T02:46:27.363Z,99425.44
2017-08-06T02:48:53.208Z,99431.48
2017-08-06T02:51:19.036Z,99429.81
2017-08-06T02:53:44.936Z,99430.54
2017-08-06T02:56:10.829Z,99435.27
2017-08-06T02:58:36.681Z,99433.33
2017-08-06T03:01:02.571Z,99432.28
2017-08-06T03:03:28.448Z,99435.07
2017-08-06T03:05:54.712Z,99424.94
2017-08-06T03:10:46.307Z,99438.86
2017-08-06T03:13:12.210Z,99436.36
2017-08-06T03:15:38.056Z,99443.86
2017-08-06T03:18:03.944Z,99449.77
2017-08-06T03:20:29.812Z,99444.73
2017-08-06T03:22:56.649Z,99442.66
2017-08-06T03:25:22.526Z,99451.98
2017-08-06T03:27:48.414Z,99458.08
2017-08-06T03:30:14.391Z,99456.54
2017-08-06T03:32:40.246Z,99455.67
2017-08-06T03:35:06.622Z,99462.36
2017-08-06T03:37:32.472Z,99464.36
2017-08-06T03:39:58.358Z,99468.82
2017-08-06T03:42:24.221Z,99458.66
2017-08-06T03:44:50.062Z,99470.23
2017-08-06T03:47:15.933Z,99476.20
2017-08-06T03:49:43.009Z,99477.26
2017-08-06T03:52:08.876Z,99476.84
2017-08-06T03:54:34.769Z,99478.28
2017-08-06T03:57:00.636Z,99489.23
2017-08-06T03:59:26.525Z,99487.23
2017-08-06T04:01:52.430Z,99486.63
2017-08-06T04:04:18.383Z,99483.87
2017-08-06T04:06:44.303Z,99486.91
2017-08-06T04:09:10.161Z,99488.88
2017-08-06T04:11:37.046Z,99492.63
2017-08-06T04:14:02.900Z,99498.55
2017-08-06T04:16:28.813Z,99500.38
2017-08-06T04:18:54.727Z,99505.00
2017-08-06T04:21:20.584Z,99506.26
2017-08-06T04:23:46.436Z,99504.53
2017-08-06T04:26:12.355Z,99509.80
2017-08-06T04:28:38.226Z,99515.13
2017-08-06T04:31:04.396Z,99515.61
2017-08-06T04:33:30.276Z,99518.55
2017-08-06T04:35:56.137Z,99516.02
2017-08-06T04:38:22.038Z,99519.37
2017-08-06T04:40:49.169Z,99524.95
2017-08-06T04:43:15.087Z,99524.20
2017-08-06T04:45:40.949Z,99529.00
2017-08-06T04:48:06.836Z,99529.00
2017-08-06T04:50:32.696Z,99525.38
2017-08-06T04:52:58.561Z,99537.31
2017-08-06T04:55:24.489Z,99536.63
2017-08-06T04:57:50.318Z,99535.77
2017-08-06T05:00:16.204Z,99542.56
2017-08-06T05:02:42.069Z,99535.59
2017-08-06T05:05:07.961Z,99535.81
2017-08-06T05:07:33.829Z,99533.53
2017-08-06T05:09:59.706Z,99543.84
2017-08-06T05:12:25.566Z,99543.43
2017-08-06T05:14:51.438Z,99551.77
2017-08-06T05:17:17.269Z,99550.91
2017-08-06T05:19:43.173Z,99550.33
2017-08-06T05:22:09.103Z,99546.85
2017-08-06T05:24:35.000Z,99548.28
2017-08-06T05:27:00.887Z,99547.88
2017-08-06T05:29:26.749Z,99549.40
2017-08-06T05:31:52.650Z,99549.48
2017-08-06T05:34:18.546Z,99555.32
2017-08-06T05:36:44.395Z,99548.28
2017-08-06T05:39:10.316Z,99552.42
2017-08-06T05:41:36.237Z,99558.78
2017-08-06T05:44:02.168Z,99558.65
2017-08-06T05:46:28.039Z,99567.84
2017-08-06T05:48:53.942Z,99566.45
2017-08-06T05:51:19.819Z,99570.05
2017-08-06T05:53:45.706Z,99568.47
2017-08-06T05:56:11.577Z,99578.66
2017-08-06T05:58:37.438Z,99576.83
2017-08-06T06:01:03.326Z,99571.38
2017-08-06T06:03:29.194Z,99574.75
2017-08-06T06:05:55.099Z,99582.38
2017-08-06T06:08:21.060Z,99585.48
2017-08-06T06:10:46.956Z,99589.94
2017-08-06T06:13:13.312Z,99584.14
2017-08-06T06:15:39.183Z,99587.84
2017-08-06T06:18:05.078Z,99587.24
2017-08-06T06:20:30.948Z,99585.78
2017-08-06T06:22:56.857Z,99592.12
2017-08-06T06:25:22.743Z,99586.48
2017-08-06T06:27:48.631Z,99588.52
2017-08-06T06:30:14.503Z,99585.02
2017-08-06T06:32:40.421Z,99583.31
2017-08-06T06:35:06.306Z,99587.38
2017-08-06T06:37:32.188Z,99591.97
2017-08-06T06:39:58.158Z,99596.33
2017-08-06T06:42:24.033Z,99598.05
2017-08-06T06:44:49.899Z,99600.86
2017-08-06T06:47:15.787Z,99607.36
2017-08-06T06:49:41.865Z,99606.70
2017-08-06T06:52:07.786Z,99609.92
2017-08-06T06:54:33.913Z,99610.34
2017-08-06T06:56:59.806Z,99613.94
2017-08-06T06:59:25.684Z,99611.34
2017-08-06T07:01:51.559Z,99612.56
2017-08-06T07:04:17.452Z,99617.78
2017-08-06T07:06:43.446Z,99617.48
2017-08-06T07:09:09.359Z,99614.53
2017-08-06T07:11:35.240Z,99624.27
2017-08-06T07:14:01.087Z,99624.45
2017-08-06T07:16:26.970Z,99628.67
2017-08-06T07:18:52.858Z,99623.56
2017-08-06T07:21:18.723Z,99625.70
2017-08-06T07:23:44.591Z,99629.98
2017-08-06T07:26:10.491Z,99627.71
2017-08-06T07:28:36.364Z,99629.90
2017-08-06T07:31:02.202Z,99628.84
2017-08-06T07:33:28.074Z,99632.70
2017-08-06T07:35:53.961Z,99625.97
2017-08-06T07:38:19.873Z,99630.58
2017-08-06T07:40:45.781Z,99631.52
2017-08-06T07:43:11.661Z,99620.48
2017-08-06T07:45:37.602Z,99619.71
2017-08-06T07:48:03.520Z,99632.23
2017-08-06T07:50:29.412Z,99620.81
2017-08-06T07:52:55.342Z,99633.73
2017-08-06T07:55:21.227Z,99628.48
2017-08-06T07:57:47.120Z,99630.41
2017-08-06T08:00:13.024Z,99627.21
2017-08-06T08:02:38.889Z,99636.14
2017-08-06T08:05:04.807Z,99633.56
2017-08-06T08:07:30.651Z,99631.27
2017-08-06T08:09:56.507Z,99631.17
2017-08-06T08:12:22.393Z,99631.31
2017-08-06T08:14:48.477Z,99632.70
2017-08-06T08:17:14.366Z,99637.41
2017-08-06T08:19:40.217Z,99635.84
2017-08-06T08:22:06.197Z,99627.44
2017-08-06T08:24:32.089Z,99637.61
2017-08-06T08:26:57.948Z,99635.78
2017-08-06T08:29:23.859Z,99639.30
2017-08-06T08:31:49.711Z,99636.22
2017-08-06T08:34:15.632Z,99636.13
2017-08-06T08:36:41.502Z,99639.88
2017-08-06T08:39:07.421Z,99636.77
2017-08-06T08:41:33.287Z,99632.95
2017-08-06T08:43:59.308Z,99639.56
2017-08-06T08:46:25.187Z,99639.83
2017-08-06T08:48:51.091Z,99641.14
2017-08-06T08:51:16.969Z,99642.59
2017-08-06T08:53:42.835Z,99640.70
2017-08-06T08:56:08.685Z,99642.37
2017-08-06T08:58:34.560Z,99639.33
2017-08-06T09:01:00.440Z,99641.00
2017-08-06T09:03:26.323Z,99643.01
2017-08-06T09:05:52.249Z,99646.78
2017-08-06T09:08:18.158Z,99643.06
2017-08-06T09:10:44.933Z,99642.14
2017-08-06T09:13:10.850Z,99641.28
2017-08-06T09:15:36.716Z,99631.41
2017-08-06T09:18:02.640Z,99634.17
2017-08-06T09:20:28.528Z,99632.12
2017-08-06T09:22:54.453Z,99628.30
2017-08-06T09:25:20.347Z,99638.45
2017-08-06T09:27:46.794Z,99628.09
2017-08-06T09:30:12.652Z,99633.05
2017-08-06T09:32:38.572Z,99630.53
2017-08-06T09:35:04.884Z,99627.67
2017-08-06T09:37:30.747Z,99620.16
2017-08-06T09:39:56.685Z,99624.06
2017-08-06T09:42:22.526Z,99618.83
2017-08-06T09:44:48.915Z,99624.35
2017-08-06T09:47:14.793Z,99621.73
2017-08-06T09:49:40.706Z,99623.41
2017-08-06T09:52:06.555Z,99616.61
2017-08-06T09:54:32.481Z,99618.74
2017-08-06T09:56:58.341Z,99618.49
2017-08-06T09:59:24.184Z,99618.05
2017-08-06T10:01:50.078Z,99624.02
2017-08-06T10:04:15.959Z,99615.10
2017-08-06T10:06:41.842Z,99614.61
2017-08-06T10:09:07.747Z,99614.62
2017-08-06T10:11:33.747Z,99604.03
2017-08-06T10:13:59.622Z,99605.00
2017-08-06T10:16:25.561Z,99599.63
2017-08-06T10:18:51.444Z,99599.63
2017-08-06T10:21:17.327Z,99605.33
2017-08-06T10:23:43.301Z,99607.19
2017-08-06T10:26:09.162Z,99603.13
2017-08-06T10:28:35.037Z,99601.91
2017-08-06T10:31:00.962Z,99596.23
2017-08-06T10:33:26.847Z,99596.57
2017-08-06T10:35:52.704Z,99590.69
2017-08-06T10:38:18.635Z,99595.97
2017-08-06T10:40:44.506Z,99586.81
2017-08-06T10:43:10.413Z,99587.48
2017-08-06T10:45:36.336Z,99583.66
2017-08-06T10:48:02.284Z,99591.06
2017-08-06T10:50:28.202Z,99592.72
2017-08-06T10:52:54.126Z,99590.64
2017-08-06T10:55:20.122Z,99590.92
2017-08-06T10:57:46.090Z,99587.56
2017-08-06T11:00:11.965Z,99584.03
2017-08-06T11:02:37.882Z,99589.39
2017-08-06T11:05:03.763Z,99580.97
2017-08-06T11:07:29.666Z,99579.73
2017-08-06T11:09:55.563Z,99575.64
2017-08-06T11:12:21.424Z,99574.96
2017-08-06T11:14:47.537Z,99576.50
2017-08-06T11:17:13.472Z,99574.24
2017-08-06T11:19:39.385Z,99572.38
2017-08-06T11:22:05.337Z,99575.17
2017-08-06T11:24:31.237Z,99573.87
2017-08-06T11:26:57.568Z,99574.38
2017-08-06T11:29:23.480Z,99584.92
2017-08-06T11:31:49.363Z,99574.36
2017-08-06T11:34:15.224Z,99569.56
2017-08-06T11:36:41.118Z,99566.28
2017-08-06T11:39:06.988Z,99565.38
2017-08-06T11:41:32.911Z,99563.34
2017-08-06T11:43:58.751Z,99563.23
2017-08-06T11:46:24.595Z,99547.65
2017-08-06T11:48:50.474Z,99564.54
2017-08-06T11:51:16.349Z,99565.08
2017-08-06T11:53:42.238Z,99561.83
2017-08-06T11:56:08.091Z,99554.07
2017-08-06T11:58:33.968Z,99553.00
2017-08-06T12:00:59.814Z,99550.19
2017-08-06T12:03:25.698Z,99553.94
2017-08-06T12:05:51.575Z,99553.66
2017-08-06T12:08:17.464Z,99550.71
2017-08-06T12:10:43.306Z,99551.06
2017-08-06T12:13:09.204Z,99555.77
2017-08-06T12:15:35.077Z,99551.27
2017-08-06T12:18:00.919Z,99555.36
2017-08-06T12:20:26.862Z,99548.77
2017-08-06T12:22:52.727Z,99548.25
2017-08-06T12:25:18.610Z,99552.41
2017-08-06T12:27:46.708Z,99550.28
2017-08-06T12:30:12.804Z,99541.05
2017-08-06T12:32:39.004Z,99540.28
2017-08-06T12:35:04.884Z,99535.23
2017-08-06T12:37:30.797Z,99538.03
2017-08-06T12:39:56.679Z,99534.05
2017-08-06T12:42:22.549Z,99532.09
2017-08-06T12:44:48.404Z,99532.60
2017-08-06T12:47:14.336Z,99531.59
2017-08-06T12:49:40.206Z,99541.15
2017-08-06T12:52:06.125Z,99544.89
2017-08-06T12:54:31.990Z,99540.23
2017-08-06T12:56:57.856Z,99539.94
2017-08-06T12:59:23.745Z,99535.81
2017-08-06T13:01:49.589Z,99530.58
2017-08-06T13:04:15.462Z,99533.49
2017-08-06T13:06:41.702Z,99530.36
2017-08-06T13:09:07.876Z,99532.78
2017-08-06T13:11:33.850Z,99538.70
2017-08-06T13:13:59.701Z,99533.23
2017-08-06T13:16:25.582Z,99524.83
2017-08-06T13:18:51.486Z,99516.80
2017-08-06T13:21:17.331Z,99528.05
2017-08-06T13:23:43.249Z,99522.81
2017-08-06T13:26:09.138Z,99528.20
2017-08-06T13:28:35.064Z,99518.54
2017-08-06T13:31:00.949Z,99516.38
2017-08-06T13:33:26.797Z,99517.58
2017-08-06T13:35:52.685Z,99524.88
2017-08-06T13:38:18.547Z,99515.64
2017-08-06T13:40:44.422Z,99522.77
2017-08-06T13:43:10.432Z,99517.04
2017-08-06T13:45:36.356Z,99518.45
2017-08-06T13:48:02.221Z,99525.41
2017-08-06T13:50:28.170Z,99514.72
2017-08-06T13:52:54.035Z,99511.97
2017-08-06T13:55:19.956Z,99509.64
2017-08-06T13:57:45.840Z,99510.27
2017-08-06T14:00:11.724Z,99504.66
2017-08-06T14:02:37.704Z,99513.53
2017-08-06T14:05:03.586Z,99508.96
2017-08-06T14:07:29.444Z,99512.61
2017-08-06T14:09:55.379Z,99510.88
2017-08-06T14:12:21.304Z,99513.33
2017-08-06T14:14:47.228Z,99517.57
2017-08-06T14:17:13.110Z,99510.09
2017-08-06T14:19:38.964Z,99514.66
2017-08-06T14:22:04.831Z,99512.41
2017-08-06T14:24:30.749Z,99517.17
2017-08-06T14:26:56.662Z,99514.63
2017-08-06T14:29:22.574Z,99516.30
2017-08-06T14:31:48.503Z,99520.23
2017-08-06T14:34:14.450Z,99520.29
2017-08-06T14:36:40.461Z,99514.58
2017-08-06T14:39:06.415Z,99512.64
2017-08-06T14:41:32.306Z,99525.59
2017-08-06T14:43:58.284Z,99517.98
2017-08-06T14:46:24.188Z,99524.62
2017-08-06T14:48:50.148Z,99515.92
2017-08-06T14:51:16.186Z,99527.22
2017-08-06T14:53:42.091Z,99522.80
2017-08-06T14:56:07.937Z,99524.70
2017-08-06T14:58:33.884Z,99516.45
2017-08-06T15:00:59.802Z,99514.86
2017-08-06T15:03:25.702Z,99515.16
2017-08-06T15:05:51.625Z,99516.41
2017-08-06T15:08:17.504Z,99519.45
2017-08-06T15:10:43.445Z,99521.16
2017-08-06T15:13:09.342Z,99517.79
2017-08-06T15:15:35.262Z,99513.34
2017-08-06T15:18:01.165Z,99517.36
2017-08-06T15:20:27.043Z,99513.52
2017-08-06T15:22:52.937Z,99517.70
2017-08-06T15:25:18.884Z,99519.48
2017-08-06T15:27:44.803Z,99513.13
2017-08-06T15:30:10.690Z,99515.88
2017-08-06T15:32:36.614Z,99515.28
2017-08-06T15:35:02.550Z,99512.16
2017-08-06T15:37:28.474Z,99510.26
2017-08-06T15:39:54.411Z,99515.92
2017-08-06T15:42:20.327Z,99498.23
2017-08-06T15:44:46.236Z,99512.95
2017-08-06T15:47:13.819Z,99526.50
2017-08-06T15:49:39.734Z,99516.28
2017-08-06T15:52:05.644Z,99522.61
2017-08-06T15:54:31.528Z,99506.77
2017-08-06T15:56:57.440Z,99511.84
2017-08-06T15:59:23.283Z,99512.03
2017-08-06T16:01:49.154Z,99512.84
2017-08-06T16:04:15.018Z,99514.99
2017-08-06T16:06:41.366Z,99507.29
2017-08-06T16:09:07.230Z,99508.77
2017-08-06T16:11:40.942Z,99505.45
2017-08-06T16:14:07.103Z,99501.75
2017-08-06T16:16:32.988Z,99503.24
2017-08-06T16:18:58.929Z,99497.56
2017-08-06T16:21:24.778Z,99499.02
2017-08-06T16:23:51.476Z,99502.23
2017-08-06T16:26:17.343Z,99507.01
2017-08-06T16:28:43.217Z,99506.43
2017-08-06T16:31:09.077Z,99503.26
2017-08-06T16:33:35.097Z,99506.92
2017-08-06T16:36:00.952Z,99497.31
2017-08-06T16:38:26.861Z,99508.27
2017-08-06T16:40:52.725Z,99512.08
2017-08-06T16:43:18.615Z,99499.05
2017-08-06T16:45:44.499Z,99511.89
2017-08-06T16:48:10.378Z,99508.54
2017-08-06T16:50:36.372Z,99508.61
2017-08-06T16:53:02.223Z,99505.99
2017-08-06T16:55:28.146Z,99504.33
2017-08-06T16:57:53.986Z,99502.17
2017-08-06T17:00:19.882Z,99504.09
2017-08-06T17:02:45.745Z,99492.38
2017-08-06T17:05:11.618Z,99504.78
2017-08-06T17:07:37.471Z,99504.91
2017-08-06T17:10:03.367Z,99503.55
2017-08-06T17:12:29.249Z,99504.91
2017-08-06T17:14:55.107Z,99507.31
2017-08-06T17:17:21.028Z,99505.27
2017-08-06T17:19:47.014Z,99500.20
2017-08-06T17:22:13.037Z,99505.05
2017-08-06T17:24:38.921Z,99500.72
2017-08-06T17:27:04.881Z,99499.24
2017-08-06T17:29:30.764Z,99498.26
2017-08-06T17:31:56.781Z,99499.83
2017-08-06T17:34:30.147Z,99496.23
2017-08-06T17:36:59.656Z,99500.17
2017-08-06T17:39:26.039Z,99504.41
2017-08-06T17:41:51.998Z,99503.85
2017-08-06T17:44:18.037Z,99502.83
2017-08-06T17:46:43.915Z,99503.29
2017-08-06T17:49:09.805Z,99499.48
2017-08-06T17:51:35.776Z,99506.05
2017-08-06T17:54:01.680Z,99499.98
2017-08-06T17:56:28.582Z,99501.58
2017-08-06T17:58:54.477Z,99500.63
2017-08-06T18:01:20.393Z,99501.44
2017-08-06T18:03:46.319Z,99502.27
2017-08-06T18:06:12.277Z,99503.69
2017-08-06T18:08:38.182Z,99496.74
2017-08-06T18:11:04.060Z,99498.09
2017-08-06T18:13:29.933Z,99494.08
2017-08-06T18:15:55.854Z,99498.86
2017-08-06T18:18:22.355Z,99501.77
2017-08-06T18:20:48.275Z,99495.65
2017-08-06T18:23:14.137Z,99501.35
2017-08-06T18:25:40.081Z,99496.19
2017-08-06T18:28:05.991Z,99496.66
2017-08-06T18:30:31.905Z,99500.83
2017-08-06T18:32:57.835Z,99501.82
2017-08-06T18:35:23.704Z,99503.42
2017-08-06T18:37:49.618Z,99502.94
2017-08-06T18:40:15.539Z,99506.77
2017-08-06T18:42:41.421Z,99507.73
2017-08-06T18:45:07.411Z,99504.06
2017-08-06T18:47:33.322Z,99511.66
2017-08-06T18:49:59.220Z,99506.72
2017-08-06T18:52:25.139Z,99506.97
2017-08-06T18:54:51.111Z,99504.05
2017-08-06T18:57:17.825Z,99502.98
2017-08-06T18:59:43.720Z,99493.82
2017-08-06T19:02:09.601Z,99497.30
2017-08-06T19:04:35.505Z,99491.96
2017-08-06T19:07:01.410Z,99499.11
2017-08-06T19:09:27.307Z,99506.13
2017-08-06T19:11:54.043Z,99509.23
2017-08-06T19:14:20.086Z,99508.56
2017-08-06T19:16:46.040Z,99514.77
2017-08-06T19:19:11.908Z,99512.53
2017-08-06T19:21:37.799Z,99510.52
2017-08-06T19:24:03.683Z,99521.75
2017-08-06T19:26:29.582Z,99528.56
2017-08-06T19:28:55.465Z,99530.13
2017-08-06T19:31:21.336Z,99540.38
2017-08-06T19:33:47.941Z,99548.33
2017-08-06T19:36:13.863Z,99543.20
2017-08-06T19:38:39.810Z,99550.72
2017-08-06T19:41:05.701Z,99549.88
2017-08-06T19:43:32.002Z,99544.17
2017-08-06T19:45:57.903Z,99552.20
2017-08-06T19:48:23.821Z,99550.48
2017-08-06T19:50:49.754Z,99547.57
2017-08-06T19:53:15.652Z,99551.46
2017-08-06T19:55:41.580Z,99548.44
2017-08-06T19:58:07.486Z,99548.69
2017-08-06T20:00:33.410Z,99547.80
2017-08-06T20:02:59.296Z,99545.28
2017-08-06T20:05:25.185Z,99545.92
2017-08-06T20:07:51.073Z,99544.73
2017-08-06T20:10:17.016Z,99545.22
2017-08-06T20:12:42.896Z,99544.37
2017-08-06T20:15:08.766Z,99542.69
2017-08-06T20:17:34.633Z,99535.89
2017-08-06T20:20:00.511Z,99546.75
2017-08-06T20:22:26.388Z,99547.19
2017-08-06T20:24:52.336Z,99520.55
2017-08-06T20:27:18.269Z,99553.89
2017-08-06T20:29:44.193Z,99552.90
2017-08-06T20:32:10.082Z,99559.69
2017-08-06T20:34:35.956Z,99563.05
2017-08-06T20:37:01.888Z,99556.00
2017-08-06T20:39:27.799Z,99558.68
2017-08-06T20:41:53.684Z,99564.41
2017-08-06T20:44:19.550Z,99562.27
2017-08-06T20:46:45.475Z,99555.31
2017-08-06T20:49:11.402Z,99557.23
2017-08-06T20:51:37.307Z,99565.20
2017-08-06T20:54:03.198Z,99566.87
2017-08-06T20:56:29.055Z,99564.88
2017-08-06T20:58:55.049Z,99571.70
2017-08-06T21:01:20.983Z,99561.03
2017-08-06T21:03:47.718Z,99562.95
2017-08-06T21:06:13.661Z,99564.73
2017-08-06T21:08:39.540Z,99561.45
2017-08-06T21:11:05.426Z,99566.69
2017-08-06T21:13:31.455Z,99568.30
2017-08-06T21:15:57.439Z,99562.66
2017-08-06T21:18:23.324Z,99562.44
2017-08-06T21:20:49.191Z,99561.17
2017-08-06T21:23:15.089Z,99570.83
2017-08-06T21:25:40.949Z,99566.62
2017-08-06T21:28:06.824Z,99566.83
2017-08-06T21:30:32.685Z,99568.65
2017-08-06T21:32:58.599Z,99565.66
2017-08-06T21:35:24.444Z,99570.19
2017-08-06T21:37:50.335Z,99565.60
2017-08-06T21:40:16.230Z,99568.09
2017-08-06T21:42:42.142Z,99567.07
2017-08-06T21:45:07.995Z,99567.92
2017-08-06T21:47:33.893Z,99566.34
2017-08-06T21:49:59.743Z,99570.70
2017-08-06T21:52:25.620Z,99556.84
2017-08-06T21:54:51.690Z,99560.80
2017-08-06T21:57:17.574Z,99562.88
2017-08-06T21:59:43.481Z,99565.98
2017-08-06T22:02:09.478Z,99561.27
2017-08-06T22:04:35.401Z,99559.63
2017-08-06T22:07:01.276Z,99564.45
2017-08-06T22:09:27.581Z,99559.55
2017-08-06T22:11:53.443Z,99561.97
2017-08-06T22:14:19.317Z,99555.16
2017-08-06T22:16:45.210Z,99557.16
2017-08-06T22:19:11.084Z,99559.37
2017-08-06T22:21:36.955Z,99555.30
2017-08-06T22:24:02.799Z,99553.30
2017-08-06T22:26:28.657Z,99555.37
2017-08-06T22:28:54.493Z,99552.09
2017-08-06T22:31:20.429Z,99530.66
2017-08-06T22:33:46.293Z,99551.98
2017-08-06T22:36:12.165Z,99548.47
2017-08-06T22:38:38.019Z,99547.36
2017-08-06T22:41:03.874Z,99550.58
2017-08-06T22:43:29.759Z,99549.86
2017-08-06T22:45:55.636Z,99550.13
2017-08-06T22:48:21.750Z,99551.86
2017-08-06T22:50:47.690Z,99538.08
2017-08-06T22:53:13.625Z,99545.97
2017-08-06T22:55:39.532Z,99550.44
2017-08-06T22:58:05.387Z,99551.59
2017-08-06T23:00:31.247Z,99556.31
2017-08-06T23:02:57.095Z,99535.06
2017-08-06T23:05:22.969Z,99551.39
2017-08-06T23:07:48.798Z,99554.73
2017-08-06T23:10:14.849Z,99552.50
2017-08-06T23:12:40.708Z,99549.41
2017-08-06T23:15:06.556Z,99551.16
2017-08-06T23:17:32.465Z,99551.98
2017-08-06T23:19:58.374Z,99545.59
2017-08-06T23:22:24.272Z,99544.53
2017-08-06T23:24:50.126Z,99541.84
2017-08-06T23:27:16.027Z,99537.09
2017-08-06T23:29:41.946Z,99537.35
2017-08-06T23:32:07.972Z,99531.18
2017-08-06T23:34:33.857Z,99537.31
2017-08-06T23:36:59.716Z,99537.79
2017-08-06T23:39:25.617Z,99530.64
2017-08-06T23:41:51.509Z,99526.69
2017-08-06T23:44:17.380Z,99516.60
2017-08-06T23:46:43.207Z,99522.51
2017-08-06T23:49:09.121Z,99519.20
2017-08-06T23:51:35.011Z,99517.58
2017-08-06T23:54:00.920Z,99521.91
2017-08-06T23:56:26.760Z,99519.70
2017-08-06T23:58:52.623Z,99516.47
